Time;durP1;ratioP1;P1;durP2;ratioP2;P2;SDS_P1;SDS_P2;PMS_P1;PMS_P2;Temp;Humidity;BMP_temperature;BMP_pressure;BME280_temperature;BME280_humidity;BME280_pressure;Samples;Min_cycle;Max_cycle;Signal;HPM_P1;HPM_P2
2022/04/02 00:00:16;;;;;;;452.83;268.80;;;;;;;3.64;42.42;100580.13;692840;28;46404;-67
2022/04/02 00:00:38;;;;;;;442.55;232.18;;;;;;;3.63;42.39;100573.09;691593;28;70431;-66
2022/04/02 00:00:59;;;;;;;454.73;273.13;;;;;;;3.65;42.27;100576.47;696185;28;49139;-66
2022/04/02 00:01:21;;;;;;;461.20;294.73;;;;;;;3.64;42.41;100574.78;698527;28;23459;-67
2022/04/02 00:01:42;;;;;;;457.27;283.63;;;;;;;3.64;42.43;100570.28;697326;28;45290;-67
2022/04/02 00:02:04;;;;;;;447.67;248.57;;;;;;;3.64;42.32;100580.97;698675;28;23313;-67
2022/04/02 00:02:26;;;;;;;449.65;257.25;;;;;;;3.60;42.39;100575.06;697482;28;47425;-67
2022/04/02 00:02:47;;;;;;;450.65;286.05;;;;;;;3.60;42.46;100575.06;696664;28;45244;-66
2022/04/02 00:03:08;;;;;;;442.17;286.92;;;;;;;3.60;42.54;100577.75;693491;28;23972;-66
2022/04/02 00:03:29;;;;;;;432.23;250.55;;;;;;;3.59;42.46;100578.72;693082;28;22400;-67
2022/04/02 00:03:51;;;;;;;442.38;268.90;;;;;;;3.60;42.56;100585.75;693824;28;23379;-67
2022/04/02 00:04:13;;;;;;;442.75;253.85;;;;;;;3.61;42.50;100575.91;692340;28;44820;-66
2022/04/02 00:04:34;;;;;;;454.95;285.35;;;;;;;3.60;42.43;100574.22;692515;28;46477;-67
2022/04/02 00:04:55;;;;;;;454.92;263.30;;;;;;;3.57;42.61;100575.34;693322;28;23518;-66
2022/04/02 00:05:17;;;;;;;462.90;285.17;;;;;;;3.59;42.60;100577.88;693249;28;22342;-66
2022/04/02 00:05:38;;;;;;;463.70;295.85;;;;;;;3.59;42.62;100580.56;692843;28;45191;-66
2022/04/02 00:05:59;;;;;;;459.60;290.17;;;;;;;3.58;42.69;100585.03;693175;28;21523;-66
2022/04/02 00:06:21;;;;;;;460.80;290.75;;;;;;;3.58;42.79;100577.00;693755;28;22383;-66
2022/04/02 00:06:43;;;;;;;459.40;287.77;;;;;;;3.60;42.88;100575.06;692320;28;45232;-66
2022/04/02 00:07:04;;;;;;;458.63;289.73;;;;;;;3.61;42.69;100579.41;693127;28;45234;-66
2022/04/02 00:07:25;;;;;;;460.10;294.08;;;;;;;3.61;42.70;100576.75;693302;28;24487;-67
2022/04/02 00:07:46;;;;;;;458.52;282.38;;;;;;;3.65;42.68;100584.50;693360;28;22285;-66
2022/04/02 00:08:08;;;;;;;446.88;232.95;;;;;;;3.66;42.59;100575.50;693194;28;22415;-67
2022/04/02 00:08:29;;;;;;;448.98;242.85;;;;;;;3.67;42.48;100578.03;692793;28;45250;-66
2022/04/02 00:08:50;;;;;;;452.80;276.77;;;;;;;3.67;42.60;100577.16;693758;28;23465;-66
2022/04/02 00:09:12;;;;;;;449.67;267.33;;;;;;;3.65;42.45;100577.31;693737;28;22181;-67
2022/04/02 00:09:34;;;;;;;454.60;274.02;;;;;;;3.61;42.47;100571.41;692375;28;47286;-67
2022/04/02 00:09:55;;;;;;;452.05;251.43;;;;;;;3.61;42.57;100582.09;692512;28;47024;-67
2022/04/02 00:10:16;;;;;;;453.45;261.00;;;;;;;3.60;42.63;100575.06;692774;28;44099;-67
2022/04/02 00:10:39;;;;;;;461.52;285.77;;;;;;;3.60;42.63;100577.75;693035;28;18827;-66
2022/04/02 00:11:01;;;;;;;469.90;313.17;;;;;;;3.57;42.60;100574.47;691419;28;70645;-66
2022/04/02 00:11:23;;;;;;;462.20;298.42;;;;;;;3.58;42.81;100563.66;693630;28;1889;-67
2022/04/02 00:11:45;;;;;;;447.17;250.05;;;;;;;3.63;42.54;100578.44;691933;28;46329;-66
2022/04/02 00:12:09;;;;;;;460.35;278.48;;;;;;;3.60;42.77;100569.72;692813;28;48044;-65
2022/04/02 00:12:30;;;;;;;466.90;296.75;;;;;;;3.60;42.73;100572.41;687902;28;115290;-66
2022/04/02 00:12:54;;;;;;;463.30;276.63;;;;;;;3.59;42.79;100570.69;690845;28;21552;-66
2022/04/02 00:13:15;;;;;;;447.00;233.80;;;;;;;3.61;42.89;100578.59;689635;28;58763;-65
2022/04/02 00:13:38;;;;;;;442.77;234.32;;;;;;;3.61;42.73;100582.09;690547;28;45132;-65
2022/04/02 00:13:59;;;;;;;452.52;271.05;;;;;;;3.60;42.79;100575.06;690028;28;46331;-65
2022/04/02 00:14:21;;;;;;;457.08;299.65;;;;;;;3.61;42.88;100570.56;691920;28;1160;-65
2022/04/02 00:14:42;;;;;;;464.15;299.05;;;;;;;3.63;42.85;100583.78;693726;28;23784;-65
2022/04/02 00:15:05;;;;;;;460.52;278.23;;;;;;;3.63;42.85;100581.13;693756;28;23392;-65
2022/04/02 00:15:26;;;;;;;459.83;270.25;;;;;;;3.63;42.85;100573.94;692562;28;49024;-66
2022/04/02 00:15:47;;;;;;;460.98;271.48;;;;;;;3.63;42.84;100579.28;692816;28;46449;-66
2022/04/02 00:16:09;;;;;;;459.63;275.38;;;;;;;3.65;42.97;100577.31;693802;28;24398;-66
2022/04/02 00:16:30;;;;;;;455.73;278.52;;;;;;;3.65;42.91;100576.47;693444;28;23415;-66
2022/04/02 00:16:52;;;;;;;448.15;266.27;;;;;;;3.66;42.90;100583.50;693297;28;23529;-66
2022/04/02 00:17:13;;;;;;;450.35;273.48;;;;;;;3.67;43.12;100578.03;693012;28;45316;-66
2022/04/02 00:17:35;;;;;;;445.85;242.57;;;;;;;3.68;43.04;100581.53;693882;28;1350;-66
2022/04/02 00:17:56;;;;;;;450.65;271.27;;;;;;;3.67;42.96;100580.72;692840;28;22320;-66
2022/04/02 00:18:17;;;;;;;448.27;255.35;;;;;;;3.67;42.97;100578.03;693122;28;22387;-66
2022/04/02 00:18:41;;;;;;;453.73;275.88;;;;;;;3.68;43.02;100581.53;695232;28;23441;-65
2022/04/02 00:19:02;;;;;;;467.15;294.60;;;;;;;3.69;42.82;100577.91;693492;28;92776;-65
2022/04/02 00:19:23;;;;;;;461.02;270.67;;;;;;;3.68;42.75;100586.88;696145;28;22350;-66
2022/04/02 00:19:44;;;;;;;466.23;271.90;;;;;;;3.67;42.86;100585.19;698090;28;23314;-66
2022/04/02 00:20:07;;;;;;;462.58;282.02;;;;;;;3.65;42.85;100581.81;698450;28;45247;-66
2022/04/02 00:20:28;;;;;;;448.08;239.60;;;;;;;3.63;42.68;100581.13;694921;28;69656;-65
2022/04/02 00:20:49;;;;;;;456.95;260.73;;;;;;;3.61;43.04;100587.44;693284;28;21063;-65
2022/04/02 00:21:11;;;;;;;459.63;280.30;;;;;;;3.56;43.09;100578.16;693311;28;22399;-66
2022/04/02 00:21:32;;;;;;;452.48;253.85;;;;;;;3.57;43.04;100585.16;693416;28;23460;-66
2022/04/02 00:21:54;;;;;;;452.13;240.52;;;;;;;3.53;43.13;100573.09;691660;28;43027;-66
2022/04/02 00:22:15;;;;;;;456.10;259.60;;;;;;;3.53;43.24;100573.91;692087;28;46530;-66
2022/04/02 00:22:36;;;;;;;448.42;246.88;;;;;;;3.55;43.32;100579.97;693884;28;23440;-66
2022/04/02 00:23:39;;;;;;;452.73;299.08;;;;;;;3.54;43.32;100583.63;690026;28;135558;-66
2022/04/02 00:24:01;;;;;;;454.10;287.92;;;;;;;3.54;43.17;100580.97;692102;28;67438;-66
2022/04/02 00:24:22;;;;;;;460.05;291.55;;;;;;;3.54;43.24;100580.09;692395;28;47055;-66
2022/04/02 00:24:43;;;;;;;461.35;299.80;;;;;;;3.56;43.37;100578.16;692510;28;44348;-66
2022/04/02 00:25:05;;;;;;;460.98;297.67;;;;;;;3.57;43.18;100583.34;693271;28;23495;-66
2022/04/02 00:25:27;;;;;;;456.98;293.95;;;;;;;3.57;43.23;100587.84;693238;28;24345;-66
2022/04/02 00:25:48;;;;;;;455.52;289.65;;;;;;;3.57;43.30;100580.69;692884;28;45077;-66
2022/04/02 00:26:10;;;;;;;450.05;259.70;;;;;;;3.60;43.15;100584.88;693629;28;22356;-66
2022/04/02 00:26:32;;;;;;;446.67;244.80;;;;;;;3.61;43.13;100582.09;691982;28;67448;-66
2022/04/02 00:26:54;;;;;;;451.85;261.98;;;;;;;3.59;42.98;100589.41;691804;28;43435;-66
2022/04/02 00:27:16;;;;;;;457.90;292.02;;;;;;;3.60;43.26;100579.56;689715;28;45100;-65
2022/04/02 00:27:37;;;;;;;463.08;293.65;;;;;;;3.60;43.23;100587.56;690020;28;44404;-66
2022/04/02 00:27:58;;;;;;;460.85;288.60;;;;;;;3.59;43.21;100584.06;690596;28;22480;-66
2022/04/02 00:28:19;;;;;;;451.02;270.67;;;;;;;3.59;43.28;100583.22;691239;28;1533;-66
2022/04/02 00:28:43;;;;;;;453.60;254.10;;;;;;;3.55;43.38;100577.28;692886;28;22206;-66
2022/04/02 00:29:06;;;;;;;452.98;236.07;;;;;;;3.56;43.26;100583.50;692670;28;69436;-66
2022/04/02 00:29:27;;;;;;;446.55;240.50;;;;;;;3.53;43.41;100579.25;693899;28;69435;-66
2022/04/02 00:29:49;;;;;;;445.27;276.23;;;;;;;3.53;43.37;100581.09;695554;28;23419;-65
2022/04/02 00:30:10;;;;;;;448.73;290.60;;;;;;;3.50;43.39;100586.69;694556;28;67260;-66
2022/04/02 00:30:32;;;;;;;446.80;241.98;;;;;;;3.49;43.47;100585.84;693312;28;21343;-66
2022/04/02 00:30:53;;;;;;;455.67;261.08;;;;;;;3.48;43.62;100584.16;693384;28;22465;-66
2022/04/02 00:31:15;;;;;;;462.13;290.92;;;;;;;3.47;43.45;100582.47;692699;28;23517;-66
2022/04/02 00:31:38;;;;;;;459.65;296.52;;;;;;;3.47;43.57;100579.78;691079;28;69125;-66
2022/04/02 00:31:59;;;;;;;461.10;258.10;;;;;;;3.47;43.54;100585.13;694891;28;42400;-66
2022/04/02 00:32:20;;;;;;;459.48;256.50;;;;;;;3.45;43.47;100576.44;696067;28;22493;-66
2022/04/02 00:32:41;;;;;;;457.65;272.58;;;;;;;3.45;43.56;100578.22;697949;28;44449;-66
2022/04/02 00:33:03;;;;;;;454.10;254.38;;;;;;;3.47;43.60;100582.47;695587;28;22368;-66
2022/04/02 00:33:25;;;;;;;459.30;265.48;;;;;;;3.47;43.54;100577.13;695446;28;21522;-66
2022/04/02 00:33:47;;;;;;;463.73;288.90;;;;;;;3.46;43.67;100580.75;695065;28;46299;-65
2022/04/02 00:34:08;;;;;;;454.42;257.95;;;;;;;3.46;43.71;100575.41;693839;28;69424;-66
2022/04/02 00:34:30;;;;;;;452.33;267.23;;;;;;;3.50;43.64;100581.34;696153;28;21550;-66
2022/04/02 00:34:52;;;;;;;459.73;296.98;;;;;;;3.51;43.69;100586.56;695289;28;44416;-65
2022/04/02 00:35:14;;;;;;;461.50;296.98;;;;;;;3.51;43.71;100575.03;698206;28;47240;-66
2022/04/02 00:35:35;;;;;;;459.67;295.02;;;;;;;3.52;43.70;100588.25;695167;28;23430;-66
2022/04/02 00:35:57;;;;;;;458.83;292.33;;;;;;;3.53;43.66;100578.41;694535;28;46362;-66
2022/04/02 00:36:20;;;;;;;446.08;245.77;;;;;;;3.53;43.75;100584.59;693082;28;21512;-66
2022/04/02 00:36:41;;;;;;;445.27;240.68;;;;;;;3.55;43.70;100579.97;690820;28;67469;-66
2022/04/02 00:37:02;;;;;;;452.38;267.38;;;;;;;3.57;43.56;100582.50;693435;28;22257;-66
2022/04/02 00:37:23;;;;;;;456.92;296.33;;;;;;;3.56;43.58;100576.31;692208;28;46301;-66
2022/04/02 00:37:45;;;;;;;452.02;277.95;;;;;;;3.58;43.52;100581.53;693177;28;21521;-66
2022/04/02 00:38:07;;;;;;;454.17;267.50;;;;;;;3.55;43.64;100571.94;692655;28;46225;-66
2022/04/02 00:38:28;;;;;;;461.70;294.30;;;;;;;3.58;43.51;100579.69;693615;28;23496;-66
2022/04/02 00:38:49;;;;;;;457.27;292.15;;;;;;;3.58;43.51;100570.84;692719;28;46167;-66
2022/04/02 00:39:11;;;;;;;454.30;294.30;;;;;;;3.55;43.52;100574.63;693734;28;22416;-66
2022/04/02 00:39:33;;;;;;;450.98;260.38;;;;;;;3.57;43.63;100579.81;692475;28;43778;-66
2022/04/02 00:39:54;;;;;;;455.95;280.88;;;;;;;3.57;43.65;100579.81;693426;28;21493;-66
2022/04/02 00:40:16;;;;;;;453.23;293.45;;;;;;;3.54;43.56;100578.28;692896;28;44994;-66
2022/04/02 00:40:42;;;;;;;455.63;300.55;;;;;;;3.53;43.62;100576.59;693711;28;21532;-65
2022/04/02 00:41:04;;;;;;;448.73;269.00;;;;;;;3.50;43.73;100578.69;689233;28;137984;-66
2022/04/02 00:41:25;;;;;;;447.25;254.95;;;;;;;3.50;43.70;100578.69;692679;28;46368;-66
2022/04/02 00:41:47;;;;;;;449.98;259.58;;;;;;;3.49;43.76;100585.84;690989;28;69409;-66
2022/04/02 00:42:09;;;;;;;447.13;254.73;;;;;;;3.51;43.67;100580.34;690438;28;23509;-66
2022/04/02 00:42:32;;;;;;;462.85;295.67;;;;;;;3.49;43.77;100572.47;687469;28;46405;-66
2022/04/02 00:42:54;;;;;;;460.48;300.75;;;;;;;3.49;43.61;100583.16;687731;28;45229;-66
2022/04/02 00:43:22;;;;;;;456.67;305.20;;;;;;;3.52;43.64;100590.06;685422;28;46239;-66
2022/04/02 00:43:56;;;;;;;446.93;298.43;;;;;;;3.52;43.69;100576.72;681740;28;160881;-66
2022/04/02 00:44:18;;;;;;;440.75;288.50;;;;;;;3.50;43.72;100582.19;685405;28;137231;-66
2022/04/02 00:44:39;;;;;;;437.55;283.50;;;;;;;3.50;43.78;100578.69;686127;28;66872;-66
2022/04/02 00:45:00;;;;;;;450.55;289.75;;;;;;;3.48;43.74;100576.16;688085;28;23449;-66
2022/04/02 00:45:21;;;;;;;446.55;284.70;;;;;;;3.50;43.93;100587.53;690819;28;22372;-66
2022/04/02 00:45:43;;;;;;;435.75;235.90;;;;;;;3.48;43.84;100578.81;690572;28;23438;-66
2022/04/02 00:46:07;;;;;;;439.23;248.40;;;;;;;3.47;43.92;100578.97;691251;28;22579;-66
2022/04/02 00:46:28;;;;;;;449.70;285.25;;;;;;;3.47;43.89;100578.97;690025;28;113766;-65
2022/04/02 00:46:49;;;;;;;447.38;255.23;;;;;;;3.46;44.11;100579.94;694568;28;46225;-66
2022/04/02 00:47:11;;;;;;;450.13;262.17;;;;;;;3.44;44.15;100577.41;698915;28;23216;-66
2022/04/02 00:47:32;;;;;;;452.83;279.65;;;;;;;3.43;44.12;100584.56;697740;28;44251;-66
2022/04/02 00:47:53;;;;;;;455.80;283.75;;;;;;;3.44;44.09;100585.41;698683;28;22397;-65
2022/04/02 00:48:14;;;;;;;456.15;289.85;;;;;;;3.43;44.26;100583.69;698162;28;21505;-66
2022/04/02 00:48:37;;;;;;;456.58;294.00;;;;;;;3.41;44.22;100575.00;696386;28;23477;-66
2022/04/02 00:48:58;;;;;;;446.88;265.05;;;;;;;3.41;44.09;100583.84;692118;28;66920;-65
2022/04/02 00:49:20;;;;;;;439.35;227.00;;;;;;;3.41;44.18;100573.16;693591;28;23436;-66
2022/04/02 00:49:43;;;;;;;441.40;237.60;;;;;;;3.43;44.20;100586.38;689491;28;22513;-65
2022/04/02 00:50:05;;;;;;;442.55;281.17;;;;;;;3.42;44.29;100576.69;689200;28;67548;-66
2022/04/02 00:50:27;;;;;;;442.00;292.55;;;;;;;3.40;44.23;100582.16;686381;28;69401;-66
2022/04/02 00:50:52;;;;;;;451.15;284.42;;;;;;;3.40;44.31;100586.63;689208;28;67329;-66
2022/04/02 00:51:15;;;;;;;440.27;249.52;;;;;;;3.38;44.46;100581.44;685360;28;91855;-66
2022/04/02 00:51:41;;;;;;;440.10;261.42;;;;;;;3.36;44.42;100586.06;685413;28;66834;-66
2022/04/02 00:52:03;;;;;;;442.65;271.75;;;;;;;3.36;44.40;100577.22;683867;28;138516;-66
2022/04/02 00:52:25;;;;;;;433.85;234.90;;;;;;;3.34;44.45;100576.50;686904;28;46080;-66
2022/04/02 00:52:49;;;;;;;433.10;242.88;;;;;;;3.34;44.54;100581.84;691422;28;46433;-66
2022/04/02 00:53:10;;;;;;;447.35;283.75;;;;;;;3.35;44.55;100580.88;690850;28;67464;-66
2022/04/02 00:53:35;;;;;;;447.80;283.00;;;;;;;3.32;44.57;100573.97;692147;28;45232;-66
2022/04/02 00:53:57;;;;;;;446.35;254.05;;;;;;;3.31;44.41;100579.44;690218;28;114355;-66
2022/04/02 00:54:20;;;;;;;455.88;285.38;;;;;;;3.30;44.65;100575.09;690117;28;69492;-66
2022/04/02 00:54:41;;;;;;;448.33;262.67;;;;;;;3.31;44.85;100569.63;690694;28;67502;-66
2022/04/02 00:55:03;;;;;;;447.45;271.27;;;;;;;3.29;44.61;100576.06;690785;28;47671;-66
2022/04/02 00:55:30;;;;;;;454.88;294.70;;;;;;;3.28;44.81;100577.91;691270;28;67118;-66
2022/04/02 00:55:51;;;;;;;449.23;278.58;;;;;;;3.28;44.68;100580.56;689362;28;138721;-65
2022/04/02 00:56:13;;;;;;;436.35;232.07;;;;;;;3.25;44.65;100578.16;697116;28;21487;-66
2022/04/02 00:56:34;;;;;;;439.98;251.00;;;;;;;3.25;44.68;100580.84;694182;28;45320;-66
2022/04/02 00:56:57;;;;;;;447.27;279.83;;;;;;;3.25;44.61;100578.16;696222;28;21545;-66
2022/04/02 00:57:18;;;;;;;454.73;294.23;;;;;;;3.24;44.78;100577.31;694671;28;46342;-66
2022/04/02 00:57:41;;;;;;;454.95;288.60;;;;;;;3.25;44.73;100581.66;694970;28;46264;-66
2022/04/02 00:58:03;;;;;;;448.35;267.33;;;;;;;3.24;44.74;100580.00;692898;28;69658;-66
2022/04/02 00:58:25;;;;;;;451.40;285.17;;;;;;;3.24;44.64;100577.31;690023;28;1437;-66
2022/04/02 00:58:47;;;;;;;454.38;290.95;;;;;;;3.24;44.66;100579.13;690982;28;21505;-66
2022/04/02 00:59:10;;;;;;;457.90;291.52;;;;;;;3.24;44.71;100576.47;686130;28;90277;-66
2022/04/02 00:59:32;;;;;;;445.48;249.13;;;;;;;3.24;44.87;100580.00;685945;28;69332;-66
2022/04/02 00:59:53;;;;;;;447.02;249.15;;;;;;;3.22;44.90;100586.44;687162;28;21321;-66
2022/04/02 01:00:16;;;;;;;455.33;285.85;;;;;;;3.20;44.85;100578.56;687039;28;23480;-66
2022/04/02 01:00:39;;;;;;;447.70;255.73;;;;;;;3.19;44.96;100574.19;688905;28;69269;-66
2022/04/02 01:01:02;;;;;;;439.23;270.92;;;;;;;3.21;45.03;100582.06;688280;28;92251;-66
2022/04/02 01:01:31;;;;;;;446.92;297.85;;;;;;;3.24;44.75;100581.81;691234;28;138531;-66
2022/04/02 01:01:53;;;;;;;451.58;296.25;;;;;;;3.24;44.98;100580.00;687826;28;89104;-66
2022/04/02 01:02:18;;;;;;;448.42;284.58;;;;;;;3.24;44.78;100580.00;685975;28;67400;-66
2022/04/02 01:02:40;;;;;;;435.67;249.57;;;;;;;3.23;44.86;100583.63;681119;28;113334;-66
2022/04/02 01:03:02;;;;;;;431.80;236.57;;;;;;;3.21;44.86;100579.41;679092;28;46714;-66
2022/04/02 01:03:23;;;;;;;442.02;264.95;;;;;;;3.21;45.03;100585.59;681129;28;22423;-66
2022/04/02 01:03:46;;;;;;;447.85;277.02;;;;;;;3.19;44.94;100587.53;681765;28;45243;-65
2022/04/02 01:04:08;;;;;;;439.30;247.88;;;;;;;3.19;45.08;100579.53;683421;28;67610;-66
2022/04/02 01:04:34;;;;;;;427.20;274.92;;;;;;;3.20;45.19;100583.06;682809;28;137641;-66
2022/04/02 01:04:56;;;;;;;408.23;302.88;;;;;;;3.20;44.98;100586.56;688030;28;21537;-66
2022/04/02 01:05:21;;;;;;;403.48;301.27;;;;;;;3.19;45.01;100584.88;679711;28;138177;-66
2022/04/02 01:05:44;;;;;;;409.77;297.05;;;;;;;3.22;44.91;100589.09;683417;28;45118;-65
2022/04/02 01:06:08;;;;;;;406.17;274.05;;;;;;;3.20;44.99;100583.06;682673;28;70549;-66
2022/04/02 01:06:33;;;;;;;453.23;291.85;;;;;;;3.20;45.09;100591.06;679018;28;138077;-66
2022/04/02 01:06:55;;;;;;;454.52;280.40;;;;;;;3.19;45.11;100587.53;679063;29;66119;-66
2022/04/02 01:07:18;;;;;;;438.63;236.32;;;;;;;3.20;44.97;100580.41;682184;28;69492;-66
2022/04/02 01:07:40;;;;;;;439.38;250.13;;;;;;;3.18;44.99;100588.53;685563;28;45267;-66
2022/04/02 01:08:05;;;;;;;448.95;284.90;;;;;;;3.17;45.11;100589.50;683440;28;69420;-66
2022/04/02 01:08:28;;;;;;;452.75;292.15;;;;;;;3.16;45.05;100586.97;680768;28;113131;-66
2022/04/02 01:08:55;;;;;;;446.55;283.50;;;;;;;3.15;45.13;100591.47;687210;28;13608;-66
2022/04/02 01:09:16;;;;;;;444.00;274.90;;;;;;;3.14;45.29;100594.28;681970;28;115310;-66
2022/04/02 01:09:41;;;;;;;444.70;281.45;;;;;;;3.12;45.28;100583.72;681350;28;113458;-66
2022/04/02 01:10:06;;;;;;;447.98;288.83;;;;;;;3.12;45.59;100583.72;683305;28;69525;-66
2022/04/02 01:10:28;;;;;;;449.52;292.45;;;;;;;3.13;45.22;100590.72;682281;28;90624;-66
2022/04/02 01:10:50;;;;;;;445.08;270.73;;;;;;;3.14;45.18;100592.44;683998;28;46441;-65
2022/04/02 01:11:13;;;;;;;432.98;237.45;;;;;;;3.13;45.28;100592.56;684449;28;46320;-65
2022/04/02 01:11:42;;;;;;;430.85;244.52;;;;;;;3.12;45.19;100586.38;679688;28;160462;-66
2022/04/02 01:12:05;;;;;;;440.73;281.67;;;;;;;3.13;45.26;100584.56;681552;28;93094;-66
2022/04/02 01:12:30;;;;;;;438.33;285.77;;;;;;;3.14;45.26;100595.09;684314;28;115766;-66
2022/04/02 01:12:54;;;;;;;420.85;258.10;;;;;;;3.13;45.49;100588.06;685266;28;92253;-66
2022/04/02 01:13:16;;;;;;;420.08;220.30;;;;;;;3.12;45.38;100597.06;688684;28;46465;-66
2022/04/02 01:13:38;;;;;;;423.88;236.38;;;;;;;3.12;45.31;100594.41;689302;28;67477;-66
2022/04/02 01:14:04;;;;;;;440.63;276.33;;;;;;;3.09;45.30;100597.31;688689;28;113563;-66
2022/04/02 01:14:27;;;;;;;441.20;286.73;;;;;;;3.09;45.41;100596.47;689630;28;46637;-65
2022/04/02 01:14:53;;;;;;;443.17;299.27;;;;;;;3.11;45.58;100597.19;682285;28;162159;-66
2022/04/02 01:15:22;;;;;;;446.83;289.52;;;;;;;3.09;45.45;100599.13;678912;28;136261;-66
2022/04/02 01:15:48;;;;;;;448.40;282.58;;;;;;;3.07;45.42;100593.94;679071;28;115482;-66
2022/04/02 01:16:12;;;;;;;442.95;275.13;;;;;;;3.06;45.53;100601.09;680075;28;116047;-67
2022/04/02 01:16:37;;;;;;;448.25;295.02;;;;;;;3.06;45.47;100590.41;680930;28;137333;-66
2022/04/02 01:17:04;;;;;;;446.27;294.83;;;;;;;3.08;45.42;100594.78;683375;28;137323;-67
2022/04/02 01:17:26;;;;;;;445.20;291.83;;;;;;;3.08;45.69;100605.47;689531;28;93091;-67
2022/04/02 01:17:47;;;;;;;440.90;277.98;;;;;;;3.05;45.60;100599.41;693013;28;23439;-67
2022/04/02 01:18:19;;;;;;;416.15;293.25;;;;;;;3.02;45.71;100590.81;686212;28;137533;-66
2022/04/02 01:18:43;;;;;;;442.75;292.00;;;;;;;3.05;45.67;100606.56;689620;28;115213;-67
2022/04/02 01:19:09;;;;;;;450.33;285.55;;;;;;;3.03;45.75;100593.34;687470;28;115082;-66
2022/04/02 01:19:32;;;;;;;451.42;287.40;;;;;;;3.04;45.67;100595.06;684596;28;23441;-67
2022/04/02 01:20:00;;;;;;;443.00;261.70;;;;;;;3.05;45.78;100604.72;675060;29;160727;-67
2022/04/02 01:20:27;;;;;;;443.20;257.33;;;;;;;3.05;45.67;100599.41;680073;28;137896;-67
2022/04/02 01:20:52;;;;;;;455.73;289.25;;;;;;;3.07;45.67;100593.94;684082;28;92227;-67
2022/04/02 01:21:17;;;;;;;451.30;283.40;;;;;;;3.05;45.75;100602.06;684137;28;136471;-66
2022/04/02 01:21:45;;;;;;;451.65;287.50;;;;;;;3.03;46.01;100598.69;683885;28;138926;-67
2022/04/02 01:22:16;;;;;;;447.63;281.23;;;;;;;3.05;45.88;100604.72;685129;28;136030;-67
2022/04/02 01:22:43;;;;;;;453.52;285.67;;;;;;;3.04;45.75;100603.06;684310;28;114231;-67
2022/04/02 01:23:04;;;;;;;452.00;290.98;;;;;;;3.05;45.82;100594.06;687332;28;67045;-66
2022/04/02 01:23:32;;;;;;;449.30;287.95;;;;;;;3.04;45.92;100600.41;686405;28;136215;-67
2022/04/02 01:24:01;;;;;;;441.50;272.93;;;;;;;3.04;45.75;100596.84;687338;28;159125;-67
2022/04/02 01:24:24;;;;;;;435.80;243.27;;;;;;;3.03;45.83;100604.03;689899;28;67498;-67
2022/04/02 01:24:49;;;;;;;450.48;290.33;;;;;;;3.06;45.76;100602.94;688668;28;138978;-66
2022/04/02 01:25:11;;;;;;;444.90;269.63;;;;;;;3.06;45.86;100606.44;687005;28;45266;-66
2022/04/02 01:25:38;;;;;;;445.27;270.33;;;;;;;3.07;45.93;100599.25;683726;28;137979;-67
2022/04/02 01:26:10;;;;;;;439.45;263.60;;;;;;;3.05;45.91;100598.56;683856;28;137665;-67
2022/04/02 01:26:37;;;;;;;440.70;262.88;;;;;;;3.04;45.99;100603.06;681893;28;136255;-66
2022/04/02 01:27:10;;;;;;;435.70;248.98;;;;;;;3.02;45.96;100593.50;681870;28;137797;-67
2022/04/02 01:27:33;;;;;;;436.70;228.05;;;;;;;3.00;46.07;100598.94;687735;28;92301;-66
2022/04/02 01:27:55;;;;;;;442.90;249.55;;;;;;;3.02;46.10;100601.50;690508;28;22405;-66
2022/04/02 01:28:17;;;;;;;446.20;282.60;;;;;;;3.03;46.04;100598.69;687007;28;46140;-66
2022/04/02 01:28:40;;;;;;;445.88;289.75;;;;;;;3.04;46.06;100607.53;688616;28;69389;-66
2022/04/02 01:29:08;;;;;;;449.65;269.50;;;;;;;3.04;46.00;100603.06;686315;28;137846;-66
2022/04/02 01:29:40;;;;;;;449.33;265.00;;;;;;;3.01;46.15;100600.66;679967;28;158912;-66
2022/04/02 01:30:06;;;;;;;438.90;241.88;;;;;;;3.03;46.25;100600.53;685534;28;116413;-66
2022/04/02 01:30:29;;;;;;;446.30;277.80;;;;;;;3.02;46.30;100606.81;688590;28;90476;-66
2022/04/02 01:30:51;;;;;;;451.30;284.08;;;;;;;3.02;45.99;100607.66;692576;28;46319;-65
2022/04/02 01:31:13;;;;;;;451.40;289.75;;;;;;;3.01;46.27;100606.00;691668;28;46382;-66
2022/04/02 01:31:35;;;;;;;446.35;274.15;;;;;;;3.05;46.12;100610.06;688341;28;69670;-66
2022/04/02 01:31:56;;;;;;;446.20;282.10;;;;;;;3.04;46.23;100602.19;692417;28;22402;-66
2022/04/02 01:32:21;;;;;;;438.90;245.38;;;;;;;3.04;46.17;100611.06;689026;28;45280;-66
2022/04/02 01:32:48;;;;;;;441.52;256.92;;;;;;;3.05;46.30;100607.41;679687;28;138683;-65
2022/04/02 01:33:10;;;;;;;446.52;280.30;;;;;;;3.08;46.26;100611.63;685149;28;45246;-66
2022/04/02 01:33:31;;;;;;;451.90;284.17;;;;;;;3.08;46.35;100610.81;687861;28;22404;-66
2022/04/02 01:33:54;;;;;;;454.98;289.25;;;;;;;3.07;46.24;100607.28;685036;28;46489;-66
2022/04/02 01:34:19;;;;;;;453.40;287.20;;;;;;;3.06;46.22;100600.25;684249;28;137893;-66
2022/04/02 01:34:42;;;;;;;443.58;256.95;;;;;;;3.07;46.34;100607.28;689501;28;69632;-66
2022/04/02 01:35:11;;;;;;;447.52;256.90;;;;;;;3.05;46.23;100607.41;683625;28;159275;-65
2022/04/02 01:35:39;;;;;;;449.25;274.48;;;;;;;3.08;46.40;100605.47;683694;28;135783;-66
2022/04/02 01:36:11;;;;;;;447.60;277.20;;;;;;;3.07;46.40;100604.59;683731;28;136043;-65
2022/04/02 01:36:49;;;;;;;442.80;256.15;;;;;;;3.06;46.32;100602.94;679773;28;136048;-66
2022/04/02 01:37:17;;;;;;;434.63;232.13;;;;;;;3.09;46.45;100604.47;686272;28;137845;-65
2022/04/02 01:37:43;;;;;;;447.90;271.77;;;;;;;3.08;46.49;100608.13;683226;28;161924;-66
2022/04/02 01:38:07;;;;;;;446.40;260.88;;;;;;;3.10;46.34;100609.66;682591;28;92288;-66
2022/04/02 01:38:29;;;;;;;437.65;244.00;;;;;;;3.09;46.39;100601.81;683504;28;21498;-66
2022/04/02 01:38:52;;;;;;;438.20;280.70;;;;;;;3.09;46.33;100612.47;681169;28;92259;-65
2022/04/02 01:39:15;;;;;;;447.42;280.08;;;;;;;3.09;46.42;100607.13;677337;28;69431;-66
2022/04/02 01:39:38;;;;;;;445.38;255.82;;;;;;;3.08;46.55;100608.97;675549;28;92341;-66
2022/04/02 01:40:03;;;;;;;445.65;262.20;;;;;;;3.10;46.57;100608.84;677341;29;21527;-66
2022/04/02 01:40:32;;;;;;;448.10;270.88;;;;;;;3.10;46.43;100609.66;678485;28;136890;-66
2022/04/02 01:40:54;;;;;;;454.75;289.67;;;;;;;3.09;46.44;100605.34;681992;28;22355;-66
2022/04/02 01:41:22;;;;;;;452.50;285.55;;;;;;;3.10;46.57;100612.34;680906;28;137827;-66
2022/04/02 01:41:43;;;;;;;449.42;280.83;;;;;;;3.09;46.54;100610.66;688251;28;46369;-66
2022/04/02 01:42:07;;;;;;;448.35;275.38;;;;;;;3.08;46.77;100606.31;688728;28;68299;-66
2022/04/02 01:42:36;;;;;;;449.65;276.02;;;;;;;3.05;46.71;100607.41;683819;28;137759;-66
2022/04/02 01:43:01;;;;;;;444.88;248.23;;;;;;;3.05;46.73;100601.22;681360;28;136365;-66
2022/04/02 01:43:23;;;;;;;440.08;237.13;;;;;;;3.05;46.75;100601.22;690242;28;23537;-66
2022/04/02 01:43:49;;;;;;;444.60;271.85;;;;;;;3.03;46.82;100596.03;683800;28;138781;-66
2022/04/02 01:44:10;;;;;;;446.80;280.70;;;;;;;3.01;46.95;100600.66;692069;28;45190;-66
2022/04/02 01:44:31;;;;;;;444.98;288.23;;;;;;;3.00;46.85;100596.28;693271;28;21532;-66
2022/04/02 01:44:53;;;;;;;439.08;261.60;;;;;;;3.00;46.79;100600.78;691511;28;22247;-66
2022/04/02 01:45:25;;;;;;;445.17;272.83;;;;;;;3.02;46.83;100598.81;685741;28;158998;-66